Time;durP1;ratioP1;P1;durP2;ratioP2;P2;SDS_P1;SDS_P2;PMS_P1;PMS_P2;Temp;Humidity;BMP_temperature;BMP_pressure;BME280_temperature;BME280_humidity;BME280_pressure;Samples;Min_cycle;Max_cycle;Signal;HPM_P1;HPM_P2
2023/03/01 00:00:07;;;;;;;10.70;8.40;;;-0.20;99.90;;;;;;5074551;28;20547;-51
2023/03/01 00:02:34;;;;;;;12.57;9.63;;;-0.10;99.90;;;;;;5073939;28;20473;-50
2023/03/01 00:05:01;;;;;;;10.30;8.93;;;-0.10;99.90;;;;;;5073597;28;21034;-51
2023/03/01 00:07:28;;;;;;;13.90;8.67;;;-0.10;99.90;;;;;;5073364;28;20532;-50
2023/03/01 00:09:55;;;;;;;11.87;9.20;;;-0.10;99.90;;;;;;5073774;28;20583;-53
2023/03/01 00:12:22;;;;;;;14.07;9.83;;;-0.30;99.90;;;;;;5073787;28;20525;-50
2023/03/01 00:14:49;;;;;;;10.93;8.73;;;-0.40;99.90;;;;;;5074199;28;20516;-49
2023/03/01 00:17:17;;;;;;;13.80;8.57;;;-0.30;99.90;;;;;;5073584;28;20520;-51
2023/03/01 00:19:44;;;;;;;11.37;8.97;;;-0.10;99.90;;;;;;5073645;28;20488;-50
2023/03/01 00:22:11;;;;;;;11.80;8.60;;;-0.20;99.90;;;;;;5073516;28;20887;-51
2023/03/01 00:24:38;;;;;;;10.57;7.87;;;-0.20;99.90;;;;;;5073763;28;20986;-52
2023/03/01 00:27:05;;;;;;;12.10;9.77;;;-0.10;99.90;;;;;;5074304;28;20535;-50
2023/03/01 00:29:35;;;;;;;10.70;8.47;;;-0.10;99.90;;;;;;5073552;28;20834;-53
2023/03/01 00:32:02;;;;;;;10.17;8.80;;;-0.20;99.90;;;;;;5073873;28;20516;-50
2023/03/01 00:34:30;;;;;;;12.83;9.43;;;-0.50;99.90;;;;;;5074820;28;20523;-50
2023/03/01 00:37:04;;;;;;;24.47;10.27;;;-0.80;99.90;;;;;;5073736;28;20527;-51
2023/03/01 00:39:31;;;;;;;12.17;9.37;;;-0.50;99.90;;;;;;5073021;28;20464;-50
2023/03/01 00:41:58;;;;;;;11.13;8.97;;;-0.40;99.90;;;;;;5073453;28;20567;-49
2023/03/01 00:44:25;;;;;;;11.33;8.30;;;-0.20;99.90;;;;;;5073552;28;20528;-51
2023/03/01 00:46:52;;;;;;;13.53;9.33;;;-0.10;99.90;;;;;;5073626;28;20520;-50
2023/03/01 00:49:19;;;;;;;10.43;8.07;;;-0.20;99.90;;;;;;5073515;28;20520;-53
2023/03/01 00:51:47;;;;;;;13.80;9.10;;;-0.20;99.90;;;;;;5073753;28;20850;-51
2023/03/01 00:54:14;;;;;;;9.70;8.70;;;-0.20;99.90;;;;;;5074011;28;20532;-51
2023/03/01 00:56:41;;;;;;;12.30;9.80;;;-0.10;99.90;;;;;;5072895;28;20512;-50
2023/03/01 00:59:08;;;;;;;9.20;8.20;;;-0.10;99.90;;;;;;5072252;28;20523;-51
2023/03/01 01:01:34;;;;;;;10.53;8.73;;;-0.10;99.90;;;;;;5072902;28;20560;-50
2023/03/01 01:04:03;;;;;;;12.00;8.60;;;0.00;99.90;;;;;;5073109;28;20590;-50
2023/03/01 01:06:32;;;;;;;13.30;8.80;;;0.00;99.90;;;;;;5072741;28;20524;-51
2023/03/01 01:09:01;;;;;;;12.63;9.80;;;0.10;99.90;;;;;;5072811;28;20524;-51
2023/03/01 01:11:30;;;;;;;10.37;8.40;;;0.10;99.90;;;;;;5072842;28;20536;-50
2023/03/01 01:13:57;;;;;;;11.73;8.37;;;0.10;99.90;;;;;;5073529;28;20552;-50
2023/03/01 01:16:26;;;;;;;10.43;9.17;;;0.30;99.90;;;;;;5072857;28;20532;-51
2023/03/01 01:18:54;;;;;;;16.20;9.50;;;0.30;99.90;;;;;;5073014;28;20544;-50
2023/03/01 01:21:23;;;;;;;9.90;8.90;;;0.30;99.90;;;;;;5073361;28;20549;-52
2023/03/01 01:23:50;;;;;;;11.00;9.23;;;0.20;99.90;;;;;;5073380;28;21862;-50
2023/03/01 01:26:21;;;;;;;13.67;9.77;;;0.00;99.90;;;;;;5073944;28;20469;-50
2023/03/01 01:28:48;;;;;;;12.77;9.40;;;-0.10;99.90;;;;;;5074263;28;20533;-50
2023/03/01 01:31:16;;;;;;;11.00;9.07;;;0.00;99.90;;;;;;5072817;28;20561;-50
2023/03/01 01:33:43;;;;;;;11.63;9.10;;;0.10;99.90;;;;;;5072811;28;20521;-52
2023/03/01 01:36:10;;;;;;;13.60;9.30;;;0.00;99.90;;;;;;5072685;28;20517;-51
2023/03/01 01:38:38;;;;;;;13.40;9.90;;;-0.20;99.90;;;;;;5071741;28;20533;-53
2023/03/01 01:41:05;;;;;;;11.33;9.57;;;-0.50;99.90;;;;;;5072277;28;20540;-49
2023/03/01 01:43:36;;;;;;;10.47;8.57;;;-0.30;99.90;;;;;;5068557;28;20572;-51
2023/03/01 01:46:04;;;;;;;11.20;8.67;;;-0.10;99.90;;;;;;5059017;28;20536;-50
2023/03/01 01:48:41;;;;;;;12.40;9.90;;;0.10;99.90;;;;;;5071525;28;20484;-51
2023/03/01 01:51:11;;;;;;;11.70;9.97;;;0.10;99.90;;;;;;5069160;28;20655;-50
2023/03/01 01:53:40;;;;;;;15.67;9.77;;;0.10;99.90;;;;;;5059425;28;20544;-51
2023/03/01 01:56:12;;;;;;;14.90;10.50;;;0.10;99.90;;;;;;5059423;28;20448;-50
2023/03/01 01:58:43;;;;;;;14.33;8.77;;;0.10;99.90;;;;;;5072056;28;21014;-51
2023/03/01 02:01:10;;;;;;;13.10;7.63;;;0.10;99.90;;;;;;5072016;28;20468;-50
2023/03/01 02:03:41;;;;;;;10.73;7.90;;;0.10;99.90;;;;;;5071730;28;20560;-51
2023/03/01 02:06:16;;;;;;;10.80;8.10;;;0.10;99.90;;;;;;5072384;28;20477;-50
2023/03/01 02:08:45;;;;;;;11.20;7.70;;;0.10;99.90;;;;;;5072155;28;20531;-49
2023/03/01 02:11:14;;;;;;;10.07;7.73;;;0.20;99.90;;;;;;5071868;28;20544;-50
2023/03/01 02:13:43;;;;;;;9.57;8.43;;;0.20;99.90;;;;;;5072961;28;20451;-52
2023/03/01 02:16:12;;;;;;;11.37;8.93;;;0.20;99.90;;;;;;5072103;28;20898;-50
2023/03/01 02:18:40;;;;;;;12.87;8.47;;;0.30;99.90;;;;;;5072209;28;20531;-50
2023/03/01 02:21:18;;;;;;;36.90;21.60;;;0.30;99.90;;;;;;5072092;28;20488;-50
2023/03/01 02:23:45;;;;;;;12.70;9.53;;;0.20;99.90;;;;;;5072672;28;20560;-50
2023/03/01 02:26:20;;;;;;;9.53;8.33;;;0.20;99.90;;;;;;5072281;28;20534;-50
2023/03/01 02:28:48;;;;;;;13.67;9.47;;;0.10;99.90;;;;;;5072888;28;20523;-50
2023/03/01 02:34:04;;;;;;;10.57;8.43;;;-0.20;99.90;;;;;;5072369;28;20439;-51
2023/03/01 02:36:36;;;;;;;10.47;7.57;;;-0.20;99.90;;;;;;5072064;28;20520;-51
2023/03/01 02:39:14;;;;;;;12.63;8.83;;;-0.30;99.90;;;;;;5072398;28;20535;-50
2023/03/01 02:41:45;;;;;;;13.53;9.50;;;-0.40;99.90;;;;;;5073143;28;20907;-49
2023/03/01 02:44:13;;;;;;;10.73;8.00;;;-0.50;99.90;;;;;;5073040;28;20524;-49
2023/03/01 02:46:45;;;;;;;12.90;8.70;;;-0.60;99.90;;;;;;5072908;28;21014;-49
2023/03/01 02:49:23;;;;;;;9.00;7.10;;;-0.30;99.90;;;;;;5072249;28;21022;-49
2023/03/01 02:52:15;;;;;;;9.43;6.53;;;-0.10;99.90;;;;;;5072554;28;20527;-50
2023/03/01 02:54:47;;;;;;;10.30;7.57;;;-0.10;99.90;;;;;;5071902;28;20527;-49
2023/03/01 02:57:15;;;;;;;13.00;8.47;;;-0.30;99.90;;;;;;5071160;28;20529;-50
2023/03/01 02:59:44;;;;;;;11.87;10.00;;;-0.50;99.90;;;;;;5072155;28;20471;-50
2023/03/01 03:02:35;;;;;;;9.87;8.87;;;-0.50;99.90;;;;;;5071819;28;20576;-50
2023/03/01 03:05:04;;;;;;;13.33;9.60;;;-0.30;99.90;;;;;;5071484;28;20451;-50
2023/03/01 03:07:31;;;;;;;14.00;9.97;;;-0.20;99.90;;;;;;5070647;28;20531;-52
2023/03/01 03:09:58;;;;;;;13.63;8.67;;;-0.60;99.90;;;;;;5072046;28;20467;-51
2023/03/01 03:12:25;;;;;;;10.13;8.30;;;-0.70;99.90;;;;;;5072367;28;20954;-50
2023/03/01 03:14:53;;;;;;;12.50;9.23;;;-0.50;99.90;;;;;;5071655;28;20520;-51
2023/03/01 03:17:20;;;;;;;11.30;9.37;;;-0.30;99.90;;;;;;5075251;28;20524;-51
2023/03/01 03:19:47;;;;;;;12.63;8.60;;;-0.40;99.90;;;;;;5055299;28;20548;-51
2023/03/01 03:22:14;;;;;;;11.67;8.23;;;-0.20;99.90;;;;;;5062668;28;20520;-50
2023/03/01 03:24:41;;;;;;;10.40;8.97;;;-0.50;99.90;;;;;;5076303;28;20479;-51
2023/03/01 03:27:08;;;;;;;12.60;9.40;;;-0.50;99.90;;;;;;5076158;28;20528;-52
2023/03/01 03:29:35;;;;;;;12.50;8.53;;;-0.60;99.90;;;;;;5076045;28;20563;-51
2023/03/01 03:32:04;;;;;;;9.33;8.03;;;-0.60;99.90;;;;;;5075754;28;20535;-49
2023/03/01 03:34:31;;;;;;;15.87;10.37;;;-0.50;99.90;;;;;;5074894;28;20491;-50
2023/03/01 03:36:59;;;;;;;11.63;6.93;;;-0.40;99.90;;;;;;5074795;28;20516;-50
2023/03/01 03:39:27;;;;;;;10.17;7.90;;;-0.40;99.90;;;;;;5074572;28;20460;-50
2023/03/01 03:41:54;;;;;;;11.10;8.20;;;-0.40;99.90;;;;;;5074693;28;20444;-50
2023/03/01 03:44:21;;;;;;;9.03;7.63;;;-0.30;99.90;;;;;;5074383;28;20937;-53
2023/03/01 03:46:48;;;;;;;10.10;7.50;;;-0.30;99.90;;;;;;5074284;28;20561;-51
2023/03/01 03:49:16;;;;;;;8.70;6.50;;;-0.30;99.90;;;;;;5074871;28;20460;-50
2023/03/01 03:51:45;;;;;;;8.23;5.77;;;-0.40;99.90;;;;;;5075552;28;20532;-52
2023/03/01 03:54:12;;;;;;;8.50;6.13;;;-0.50;99.90;;;;;;5075210;28;20519;-51
2023/03/01 03:56:39;;;;;;;9.13;7.10;;;-0.50;99.90;;;;;;5074326;28;20528;-49
2023/03/01 03:59:06;;;;;;;7.93;6.07;;;-0.40;99.90;;;;;;5074817;28;20570;-51
2023/03/01 04:01:33;;;;;;;6.57;5.70;;;-0.30;99.90;;;;;;5073681;28;20448;-50
2023/03/01 04:04:03;;;;;;;8.80;5.93;;;-0.40;99.90;;;;;;5074388;28;20535;-49
2023/03/01 04:06:32;;;;;;;7.23;5.10;;;-0.30;99.90;;;;;;5074540;28;20542;-51
2023/03/01 04:09:00;;;;;;;8.80;6.50;;;-0.20;99.90;;;;;;5074222;28;20536;-51
2023/03/01 04:11:27;;;;;;;9.13;6.80;;;-0.20;99.90;;;;;;5073539;28;20556;-51
2023/03/01 04:13:56;;;;;;;8.60;6.83;;;-0.30;99.90;;;;;;5073915;28;20520;-50
2023/03/01 04:16:23;;;;;;;8.07;6.70;;;-0.30;99.90;;;;;;5074094;28;20583;-53
2023/03/01 04:18:50;;;;;;;7.03;4.90;;;-0.20;99.90;;;;;;5073767;28;20448;-50
2023/03/01 04:21:17;;;;;;;7.37;5.93;;;-0.20;99.90;;;;;;5073997;28;20551;-51
2023/03/01 04:23:45;;;;;;;8.40;6.20;;;-0.30;99.90;;;;;;5074404;28;20552;-50
2023/03/01 04:26:12;;;;;;;9.20;6.00;;;-0.40;99.90;;;;;;5072503;28;20519;-51
2023/03/01 04:28:42;;;;;;;8.13;5.70;;;-0.30;99.90;;;;;;5053198;28;20524;-51
2023/03/01 04:31:13;;;;;;;8.03;5.53;;;-0.30;99.90;;;;;;5069321;28;20851;-52
2023/03/01 04:33:41;;;;;;;9.07;6.33;;;-0.30;99.90;;;;;;5074172;28;20445;-50
2023/03/01 04:36:09;;;;;;;6.37;5.07;;;-0.30;99.90;;;;;;5073571;28;20445;-51
2023/03/01 04:38:37;;;;;;;6.53;4.83;;;-0.30;99.90;;;;;;5074175;28;20532;-50
2023/03/01 04:41:07;;;;;;;6.53;5.40;;;-0.40;99.90;;;;;;5073875;28;20484;-50
2023/03/01 04:43:34;;;;;;;6.80;5.70;;;-0.40;99.90;;;;;;5074367;28;20564;-50
2023/03/01 04:46:03;;;;;;;5.87;5.20;;;-0.40;99.90;;;;;;5074520;28;20449;-49
2023/03/01 04:48:31;;;;;;;7.33;6.30;;;-0.40;99.90;;;;;;5074494;28;20460;-53
2023/03/01 04:50:59;;;;;;;7.77;5.90;;;-0.40;99.90;;;;;;5073277;28;21204;-49
2023/03/01 04:53:26;;;;;;;9.00;6.40;;;-0.40;99.90;;;;;;5072718;28;20508;-51
2023/03/01 04:55:54;;;;;;;7.53;6.83;;;-0.50;99.90;;;;;;5073275;28;20529;-50
2023/03/01 04:58:22;;;;;;;9.33;6.50;;;-0.50;99.90;;;;;;5072979;28;21010;-50
2023/03/01 05:00:49;;;;;;;9.87;7.30;;;-0.60;99.90;;;;;;5072651;28;21066;-50
2023/03/01 05:03:17;;;;;;;9.20;7.80;;;-0.80;99.90;;;;;;5072757;28;20984;-49
2023/03/01 05:05:46;;;;;;;7.33;6.57;;;-1.10;99.90;;;;;;5073387;28;20445;-49
2023/03/01 05:08:17;;;;;;;7.90;5.77;;;-1.20;99.90;;;;;;5072936;28;20535;-49
2023/03/01 05:10:45;;;;;;;9.50;6.73;;;-1.20;99.90;;;;;;5072442;28;21066;-51
2023/03/01 05:13:14;;;;;;;8.50;6.70;;;-1.30;99.90;;;;;;5072996;28;20935;-51
2023/03/01 05:15:43;;;;;;;11.70;6.93;;;-1.40;99.90;;;;;;5072946;28;20449;-51
2023/03/01 05:18:11;;;;;;;6.87;6.17;;;-1.20;99.90;;;;;;5073042;28;20523;-50
2023/03/01 05:20:39;;;;;;;8.43;6.30;;;-1.20;99.90;;;;;;5072100;28;20983;-50
2023/03/01 05:23:06;;;;;;;7.20;6.00;;;-0.90;99.90;;;;;;5072560;28;20564;-50
2023/03/01 05:25:33;;;;;;;7.23;5.77;;;-0.80;99.90;;;;;;5072117;28;20789;-51
2023/03/01 05:28:03;;;;;;;11.43;6.77;;;-0.80;99.90;;;;;;5071109;28;20531;-52
2023/03/01 05:30:31;;;;;;;12.17;7.00;;;-0.80;99.90;;;;;;5070522;28;20465;-50
2023/03/01 05:32:59;;;;;;;12.40;8.63;;;-0.90;99.90;;;;;;5067473;28;20544;-51
2023/03/01 05:35:27;;;;;;;15.67;9.40;;;-0.80;99.90;;;;;;5051572;28;20536;-52
2023/03/01 05:37:54;;;;;;;12.63;7.07;;;-0.70;99.90;;;;;;5069802;28;20528;-49
2023/03/01 05:40:23;;;;;;;10.57;8.20;;;-0.70;99.90;;;;;;5070631;28;20540;-50
2023/03/01 05:42:53;;;;;;;18.57;11.17;;;-0.80;99.90;;;;;;5071344;28;20490;-50
2023/03/01 05:45:20;;;;;;;9.80;6.77;;;-0.80;99.90;;;;;;5071809;28;20881;-50
2023/03/01 05:47:48;;;;;;;7.67;5.70;;;-1.10;99.90;;;;;;5061871;28;20513;-50
2023/03/01 05:50:19;;;;;;;7.20;5.23;;;-1.00;99.90;;;;;;5053736;28;21067;-50
2023/03/01 05:52:48;;;;;;;9.30;6.50;;;-1.00;99.90;;;;;;5071385;28;20441;-49
2023/03/01 05:55:16;;;;;;;9.10;6.77;;;-0.90;99.90;;;;;;5070552;28;20524;-50
2023/03/01 05:57:42;;;;;;;7.47;5.40;;;-0.90;99.90;;;;;;5072083;28;21005;-49
2023/03/01 06:00:12;;;;;;;7.00;5.97;;;-0.80;99.90;;;;;;5076581;28;20610;-52
2023/03/01 06:02:40;;;;;;;11.13;8.63;;;-0.70;99.90;;;;;;5074307;28;20883;-52
2023/03/01 06:05:09;;;;;;;9.10;6.60;;;-0.90;99.90;;;;;;5073634;28;20532;-49
2023/03/01 06:07:37;;;;;;;10.33;7.70;;;-0.90;99.90;;;;;;5073399;28;20528;-49
2023/03/01 06:10:06;;;;;;;8.00;6.20;;;-0.80;99.90;;;;;;5082061;28;20534;-51
2023/03/01 06:12:33;;;;;;;11.93;7.27;;;-1.10;99.90;;;;;;5074322;28;20842;-49
2023/03/01 06:15:00;;;;;;;15.57;11.37;;;-1.10;99.90;;;;;;5079662;28;20531;-51
2023/03/01 06:17:30;;;;;;;15.43;9.90;;;-1.00;99.90;;;;;;5070174;28;20968;-50
2023/03/01 06:19:57;;;;;;;10.53;8.30;;;-1.00;99.90;;;;;;5070985;28;20488;-49
2023/03/01 06:22:25;;;;;;;10.70;6.87;;;-0.90;99.90;;;;;;5077297;28;20939;-52
2023/03/01 06:24:53;;;;;;;13.20;7.60;;;-0.90;99.90;;;;;;5079426;28;20559;-49
2023/03/01 06:27:20;;;;;;;9.17;7.23;;;-0.90;99.90;;;;;;5076590;28;20473;-49
2023/03/01 06:29:46;;;;;;;9.23;6.83;;;-0.90;99.90;;;;;;5149040;22;20472;-45
2023/03/01 06:32:13;;;;;;;10.13;7.67;;;-0.90;99.90;;;;;;5071293;28;20532;-48
2023/03/01 06:34:40;;;;;;;8.97;7.67;;;-0.90;99.90;;;;;;5068598;28;20472;-47
2023/03/01 06:37:08;;;;;;;10.60;7.80;;;-0.90;99.90;;;;;;5071146;28;20915;-48
2023/03/01 06:39:35;;;;;;;11.73;8.47;;;-0.90;99.90;;;;;;5071032;28;20543;-47
2023/03/01 06:42:03;;;;;;;11.93;8.77;;;-1.00;99.90;;;;;;5050969;28;20967;-48
2023/03/01 06:44:30;;;;;;;14.07;9.50;;;-0.90;99.90;;;;;;5051067;28;20568;-48
2023/03/01 06:46:57;;;;;;;8.33;6.07;;;-0.80;99.90;;;;;;5067487;28;20528;-49
2023/03/01 06:49:24;;;;;;;5.73;4.50;;;-0.70;99.90;;;;;;5070308;28;20528;-48
2023/03/01 06:51:51;;;;;;;7.27;6.13;;;-0.80;99.90;;;;;;5072608;28;20551;-48
2023/03/01 06:54:18;;;;;;;6.93;5.60;;;-0.80;99.90;;;;;;5055523;28;20532;-50
2023/03/01 06:56:47;;;;;;;8.20;5.60;;;-0.90;99.90;;;;;;5054530;28;20446;-48
2023/03/01 06:59:17;;;;;;;11.00;7.97;;;-0.90;99.90;;;;;;5053999;28;20544;-49
2023/03/01 07:01:44;;;;;;;8.50;6.13;;;-1.00;99.90;;;;;;5055191;28;20553;-48
2023/03/01 07:04:11;;;;;;;10.20;6.60;;;-1.10;99.90;;;;;;5055040;28;20565;-48
2023/03/01 07:06:38;;;;;;;8.47;7.57;;;-1.20;99.90;;;;;;5054798;28;20477;-47
2023/03/01 07:09:05;;;;;;;9.23;7.00;;;-1.50;99.90;;;;;;5054743;28;20532;-47
2023/03/01 07:11:32;;;;;;;8.67;6.87;;;-1.60;99.90;;;;;;5054878;28;20544;-48
2023/03/01 07:13:59;;;;;;;11.33;7.27;;;-1.80;99.90;;;;;;5054528;28;20524;-51
2023/03/01 07:16:28;;;;;;;7.40;6.40;;;-1.90;99.90;;;;;;5054496;28;20495;-49
2023/03/01 07:18:55;;;;;;;9.13;7.40;;;-1.90;99.90;;;;;;5054538;28;20524;-48
2023/03/01 07:21:22;;;;;;;27.43;21.10;;;-1.70;99.90;;;;;;5054122;28;20544;-48
2023/03/01 07:23:49;;;;;;;15.17;12.23;;;-1.30;99.90;;;;;;5054450;28;20560;-48
2023/03/01 07:26:16;;;;;;;10.03;7.27;;;-1.20;99.90;;;;;;5054623;28;20448;-48
2023/03/01 07:28:43;;;;;;;8.90;5.47;;;-1.00;99.90;;;;;;5054227;28;20581;-48
2023/03/01 07:31:10;;;;;;;8.30;6.60;;;-0.90;99.90;;;;;;5054318;28;20552;-48
2023/03/01 07:33:38;;;;;;;35.57;18.77;;;-0.80;99.90;;;;;;5054432;28;20528;-48
2023/03/01 07:36:06;;;;;;;15.77;12.37;;;-0.70;99.90;;;;;;5053836;28;21019;-48
2023/03/01 07:38:33;;;;;;;11.27;8.20;;;-0.70;99.90;;;;;;5054100;28;20536;-48
2023/03/01 07:41:01;;;;;;;9.43;6.70;;;-0.70;99.90;;;;;;5054074;28;20544;-50
2023/03/01 07:43:28;;;;;;;12.40;8.40;;;-1.00;99.90;;;;;;5053797;28;21134;-51
2023/03/01 07:45:55;;;;;;;13.73;9.90;;;-0.90;99.90;;;;;;5054166;28;20565;-50
2023/03/01 07:48:22;;;;;;;18.30;10.43;;;-0.80;99.90;;;;;;5053185;28;20524;-48
2023/03/01 07:50:50;;;;;;;12.97;10.20;;;-0.90;99.90;;;;;;5054193;28;20555;-49
2023/03/01 07:53:17;;;;;;;16.60;11.60;;;-0.80;99.90;;;;;;5053988;28;21124;-48
2023/03/01 07:55:44;;;;;;;17.53;12.00;;;-0.80;99.90;;;;;;5054149;28;20529;-48
2023/03/01 07:58:11;;;;;;;18.43;11.03;;;-0.80;99.90;;;;;;5053648;28;20536;-51
2023/03/01 08:00:38;;;;;;;16.20;11.00;;;-0.70;99.90;;;;;;5053895;28;20540;-48
2023/03/01 08:03:04;;;;;;;12.73;10.67;;;-0.70;99.90;;;;;;5053725;28;20524;-48
2023/03/01 08:05:31;;;;;;;15.27;8.73;;;-0.90;99.90;;;;;;5053992;28;20564;-48
2023/03/01 08:08:00;;;;;;;10.07;7.83;;;-1.40;99.90;;;;;;5051850;28;20529;-45
2023/03/01 08:10:26;;;;;;;12.83;8.30;;;-1.40;99.90;;;;;;5033331;28;20833;-49
2023/03/01 08:12:53;;;;;;;11.17;8.40;;;-1.30;99.90;;;;;;5053404;28;20525;-48
2023/03/01 08:15:20;;;;;;;12.10;9.20;;;-1.20;99.90;;;;;;5053726;28;20869;-48
2023/03/01 08:17:50;;;;;;;10.70;7.23;;;-0.90;99.90;;;;;;5053749;28;20520;-48
2023/03/01 08:20:17;;;;;;;10.37;8.60;;;-0.70;99.90;;;;;;5053247;28;20464;-48
2023/03/01 08:22:44;;;;;;;7.77;6.53;;;-0.60;99.90;;;;;;5052550;28;20473;-48
2023/03/01 08:25:12;;;;;;;11.50;7.60;;;-0.50;99.90;;;;;;5036564;28;21079;-48
2023/03/01 08:27:39;;;;;;;10.93;8.50;;;-0.40;99.90;;;;;;5044578;28;20538;-50
2023/03/01 08:30:08;;;;;;;9.00;6.00;;;-0.40;99.90;;;;;;5033212;28;20577;-48
2023/03/01 08:32:38;;;;;;;9.20;6.20;;;-0.40;99.90;;;;;;5033422;28;20891;-50
2023/03/01 08:35:05;;;;;;;6.03;5.07;;;-0.30;99.90;;;;;;5033536;28;20964;-50
2023/03/01 08:37:33;;;;;;;7.07;5.77;;;-0.30;99.90;;;;;;5033152;28;21017;-48
2023/03/01 08:40:00;;;;;;;7.67;4.87;;;-0.20;99.90;;;;;;5032749;28;20551;-48
2023/03/01 08:42:28;;;;;;;8.40;6.60;;;-0.40;99.90;;;;;;5033217;28;20533;-48
2023/03/01 08:44:56;;;;;;;9.87;6.23;;;-0.50;99.90;;;;;;5033159;28;20573;-48
2023/03/01 08:47:23;;;;;;;6.40;5.10;;;-0.40;99.90;;;;;;5033171;28;20448;-50
2023/03/01 08:49:50;;;;;;;8.87;6.40;;;-0.20;99.90;;;;;;5032358;28;20529;-48
2023/03/01 08:52:17;;;;;;;6.03;5.27;;;0.00;99.90;;;;;;5032947;28;20443;-49
2023/03/01 08:54:44;;;;;;;7.87;4.83;;;0.10;99.90;;;;;;5032994;28;20525;-48
2023/03/01 08:57:12;;;;;;;6.23;5.10;;;0.20;99.90;;;;;;5033153;28;20525;-48
2023/03/01 08:59:41;;;;;;;7.30;5.33;;;0.20;99.90;;;;;;5032567;28;20447;-48
2023/03/01 09:02:18;;;;;;;5.37;4.87;;;0.20;99.90;;;;;;5032645;28;20450;-51
2023/03/01 09:04:45;;;;;;;5.80;4.67;;;0.30;99.90;;;;;;5032749;28;20564;-48
2023/03/01 09:07:12;;;;;;;6.20;4.60;;;0.40;99.90;;;;;;5032533;28;20534;-49
2023/03/01 09:09:39;;;;;;;7.40;5.27;;;0.40;99.90;;;;;;5032534;28;20534;-48
2023/03/01 09:12:06;;;;;;;8.70;5.00;;;0.50;99.90;;;;;;5032685;28;20522;-48
2023/03/01 09:14:33;;;;;;;7.00;6.07;;;0.70;99.90;;;;;;5032015;28;21020;-48
2023/03/01 09:17:02;;;;;;;8.97;5.37;;;0.80;99.90;;;;;;5032520;28;20538;-48
2023/03/01 09:19:29;;;;;;;12.23;6.60;;;0.80;99.90;;;;;;5032142;28;20474;-50
2023/03/01 09:21:58;;;;;;;6.83;6.10;;;0.90;99.90;;;;;;5032218;28;20541;-48
2023/03/01 09:24:25;;;;;;;7.77;5.97;;;0.90;99.90;;;;;;5032496;28;20482;-48
2023/03/01 09:26:55;;;;;;;6.90;5.57;;;1.00;99.90;;;;;;5032533;28;20482;-46
2023/03/01 09:29:22;;;;;;;6.73;5.50;;;1.10;99.90;;;;;;5031686;28;20545;-48
2023/03/01 09:31:48;;;;;;;6.73;5.30;;;1.00;99.90;;;;;;5031976;28;20479;-49
2023/03/01 09:34:22;;;;;;;6.70;5.37;;;1.20;99.90;;;;;;5032589;28;20541;-51
2023/03/01 09:36:49;;;;;;;6.40;4.97;;;1.30;99.90;;;;;;5032188;28;20509;-48
2023/03/01 09:39:17;;;;;;;5.27;4.53;;;1.50;99.90;;;;;;5031754;28;20533;-48
2023/03/01 09:41:48;;;;;;;7.47;5.07;;;1.40;99.90;;;;;;5031703;28;20472;-49
2023/03/01 09:44:24;;;;;;;6.90;5.50;;;1.50;99.90;;;;;;5032160;28;20440;-47
2023/03/01 09:46:52;;;;;;;7.00;6.20;;;1.40;99.90;;;;;;5031990;28;20521;-48
2023/03/01 09:49:23;;;;;;;11.43;6.43;;;1.60;99.90;;;;;;5031192;28;21026;-48
2023/03/01 09:51:58;;;;;;;7.40;5.93;;;1.60;99.90;;;;;;5031761;28;20559;-49
2023/03/01 09:54:25;;;;;;;8.60;5.30;;;1.90;99.90;;;;;;5031731;28;20546;-49
2023/03/01 09:57:07;;;;;;;7.30;6.60;;;2.00;99.90;;;;;;5030562;28;20526;-49
2023/03/01 09:59:46;;;;;;;8.63;7.20;;;1.90;99.90;;;;;;5041296;28;20537;-48
2023/03/01 10:02:27;;;;;;;12.20;6.60;;;2.00;99.90;;;;;;5051200;28;20520;-50
2023/03/01 10:04:59;;;;;;;8.87;6.87;;;2.10;99.90;;;;;;5051463;28;20558;-48
2023/03/01 10:07:39;;;;;;;8.43;6.23;;;1.90;99.90;;;;;;5051530;28;20533;-49
2023/03/01 10:10:07;;;;;;;10.13;6.50;;;1.90;99.90;;;;;;5050765;28;21067;-49
2023/03/01 10:12:36;;;;;;;11.53;7.33;;;2.10;99.90;;;;;;5051211;28;20528;-48
2023/03/01 10:15:10;;;;;;;12.10;8.53;;;2.30;99.90;;;;;;5051852;28;20457;-50
2023/03/01 10:17:40;;;;;;;11.10;8.70;;;2.40;99.90;;;;;;5051335;28;20445;-48
2023/03/01 10:20:21;;;;;;;11.63;9.03;;;2.30;99.90;;;;;;5051012;28;20573;-47
2023/03/01 10:22:50;;;;;;;10.10;7.87;;;2.30;99.90;;;;;;5051389;28;20526;-50
2023/03/01 10:25:24;;;;;;;11.27;8.50;;;2.50;99.90;;;;;;5050265;28;20922;-48
2023/03/01 10:27:54;;;;;;;9.43;6.90;;;2.60;99.90;;;;;;5050043;28;20537;-48
2023/03/01 10:30:28;;;;;;;8.27;6.50;;;2.60;99.90;;;;;;5050647;28;20562;-48
2023/03/01 10:32:55;;;;;;;11.50;8.67;;;2.50;99.90;;;;;;5051106;28;20525;-49
2023/03/01 10:35:26;;;;;;;9.90;8.00;;;2.50;99.90;;;;;;5051324;28;20481;-48
2023/03/01 10:38:04;;;;;;;12.73;7.50;;;2.60;99.90;;;;;;5050174;28;20476;-47
2023/03/01 10:40:31;;;;;;;8.90;7.70;;;2.70;99.90;;;;;;5051111;28;20886;-48
2023/03/01 10:43:01;;;;;;;10.23;8.10;;;2.90;99.90;;;;;;5051231;28;20481;-50
2023/03/01 10:45:35;;;;;;;14.63;8.90;;;3.20;99.90;;;;;;5050992;28;20571;-49
2023/03/01 10:48:14;;;;;;;14.30;8.40;;;3.30;99.90;;;;;;5051087;28;20872;-48
2023/03/01 10:50:43;;;;;;;10.90;7.83;;;3.60;99.90;;;;;;5050521;28;20468;-48
2023/03/01 10:53:33;;;;;;;9.80;7.27;;;3.80;99.90;;;;;;5051153;28;20528;-49
2023/03/01 10:56:03;;;;;;;10.07;6.93;;;3.80;99.90;;;;;;5045860;28;20535;-50
2023/03/01 10:58:31;;;;;;;9.33;7.63;;;3.70;99.90;;;;;;5050345;28;20506;-48
2023/03/01 11:01:00;;;;;;;12.73;8.03;;;3.50;99.90;;;;;;5044893;28;20566;-49
2023/03/01 11:03:30;;;;;;;9.77;7.67;;;3.50;99.90;;;;;;5031074;28;20474;-48
2023/03/01 11:06:05;;;;;;;9.50;8.00;;;3.50;99.90;;;;;;5030704;28;20484;-48
2023/03/01 11:08:43;;;;;;;9.47;7.60;;;3.60;99.90;;;;;;5031072;28;20535;-51
2023/03/01 11:11:32;;;;;;;10.50;7.10;;;3.70;99.90;;;;;;5048440;28;20533;-49
2023/03/01 11:14:00;;;;;;;11.33;7.80;;;3.80;99.90;;;;;;5049688;28;20970;-49
2023/03/01 11:16:32;;;;;;;11.13;7.73;;;3.70;99.90;;;;;;5044753;28;20519;-50
2023/03/01 11:19:05;;;;;;;8.77;7.10;;;3.70;99.90;;;;;;5050630;28;21006;-49
2023/03/01 11:21:35;;;;;;;11.70;7.47;;;3.90;99.90;;;;;;5050542;28;20550;-49
2023/03/01 11:24:04;;;;;;;9.90;7.37;;;3.70;99.90;;;;;;5050752;28;20536;-48
2023/03/01 11:26:35;;;;;;;15.37;10.57;;;3.70;99.90;;;;;;5050359;28;20540;-48
2023/03/01 11:29:08;;;;;;;7.97;7.17;;;3.80;99.90;;;;;;5050140;28;21005;-48
2023/03/01 11:31:36;;;;;;;8.60;6.30;;;3.80;99.90;;;;;;5050429;28;20553;-49
2023/03/01 11:34:12;;;;;;;8.93;7.03;;;3.80;99.90;;;;;;5058113;28;20532;-50
2023/03/01 11:36:45;;;;;;;8.00;6.67;;;4.00;99.90;;;;;;5059401;28;20512;-49
2023/03/01 11:39:22;;;;;;;11.10;7.80;;;4.10;99.90;;;;;;5061997;28;20589;-48
2023/03/01 11:41:54;;;;;;;10.67;7.27;;;4.10;99.90;;;;;;5062606;28;20546;-48
2023/03/01 11:44:26;;;;;;;11.00;8.73;;;4.40;99.90;;;;;;5063043;28;20530;-50
2023/03/01 11:47:14;;;;;;;11.80;9.40;;;4.40;99.90;;;;;;5063766;28;21035;-51
2023/03/01 11:50:11;;;;;;;10.97;7.57;;;4.50;99.90;;;;;;5060186;28;20533;-48
2023/03/01 11:52:49;;;;;;;13.73;9.17;;;4.50;99.90;;;;;;5060584;28;20520;-51
2023/03/01 11:55:25;;;;;;;12.30;9.57;;;4.50;99.90;;;;;;5033431;28;20464;-50
2023/03/01 11:58:19;;;;;;;11.70;8.07;;;4.50;99.90;;;;;;5049125;28;20510;-48
2023/03/01 12:01:01;;;;;;;10.07;8.77;;;4.70;99.90;;;;;;5053818;28;21057;-49
2023/03/01 12:03:34;;;;;;;11.93;9.03;;;4.60;99.90;;;;;;5054130;28;20449;-49
2023/03/01 12:06:23;;;;;;;12.17;9.10;;;4.80;99.90;;;;;;5053522;28;20574;-49
2023/03/01 12:09:02;;;;;;;12.27;9.10;;;5.00;99.90;;;;;;5053887;28;20546;-49
2023/03/01 12:11:42;;;;;;;11.40;9.20;;;5.00;99.90;;;;;;5052902;28;20883;-49
2023/03/01 12:14:31;;;;;;;10.70;8.60;;;5.00;99.90;;;;;;5052581;28;20875;-49
2023/03/01 12:17:16;;;;;;;9.50;7.10;;;5.00;99.90;;;;;;5052743;28;20519;-49
2023/03/01 12:20:06;;;;;;;13.77;8.97;;;4.90;99.90;;;;;;5052872;28;20535;-49
2023/03/01 12:22:40;;;;;;;12.50;8.60;;;5.00;99.90;;;;;;5053370;28;20456;-50
2023/03/01 12:25:26;;;;;;;11.50;8.60;;;5.10;99.90;;;;;;5053242;28;20572;-49
2023/03/01 12:28:29;;;;;;;10.73;7.93;;;5.10;99.90;;;;;;5053788;28;20456;-49
2023/03/01 12:31:17;;;;;;;10.40;8.23;;;5.10;99.90;;;;;;5053242;28;20933;-49
2023/03/01 12:33:53;;;;;;;10.77;7.90;;;5.00;99.90;;;;;;5053546;28;20527;-50
2023/03/01 12:36:40;;;;;;;10.50;7.30;;;4.90;99.90;;;;;;5053487;28;20512;-50
2023/03/01 12:39:23;;;;;;;12.07;7.17;;;4.90;99.90;;;;;;5052906;28;20520;-48
2023/03/01 12:42:02;;;;;;;8.17;6.40;;;4.90;99.90;;;;;;5053212;28;20891;-49
2023/03/01 12:44:46;;;;;;;8.13;7.23;;;4.90;99.90;;;;;;5053191;28;20528;-49
2023/03/01 12:47:35;;;;;;;9.03;7.70;;;5.10;99.90;;;;;;5052631;28;20566;-49
2023/03/01 12:50:07;;;;;;;10.80;7.50;;;5.10;99.90;;;;;;5052729;28;20551;-48
2023/03/01 12:52:41;;;;;;;13.53;9.00;;;5.00;99.90;;;;;;5052941;28;20850;-48
2023/03/01 12:55:24;;;;;;;9.63;8.47;;;4.90;99.90;;;;;;5053263;28;20567;-48
2023/03/01 12:58:01;;;;;;;11.10;7.93;;;4.90;99.90;;;;;;5052381;28;20524;-51
2023/03/01 13:00:33;;;;;;;7.93;6.27;;;5.20;99.90;;;;;;5052848;28;20492;-49
2023/03/01 13:03:11;;;;;;;10.70;6.50;;;5.50;99.90;;;;;;5052803;28;20520;-49